Tampa, Florida
Traffic Map
Current Weather Conditions
Tampa, Florida
Scattered Clouds
Scattered Clouds
13°
Feels Like: 13°
Wind Chill: 13° Ceiling: Unl
Heat Index: 13° Visibility: 10mi
Dew Point: Wind: 8mph
Humidity: 64% Direction: 300° (WNW)
Pressure: 29.99in Gusts: 0mph
Raw Report DataKTPA 270453Z 30007KT 10SM SCT040 13/07 A2999 RMK AO2 SLP156 T01330067 401830133
Traffic Incident Summary
Active as of:
Severity:
Category:
InformationThere was an issue retrieving the traffic information for this location. Please try a different location or try again shortly.
Advertisements
Track Severe Weather on mobile